createdAt,value
2019-02-12T00:00:35.391Z,102154.58
2019-02-12T00:03:04.666Z,102152.45
2019-02-12T00:05:33.850Z,102150.83
2019-02-12T00:08:03.327Z,102150.83
2019-02-12T00:10:32.992Z,102147.59
2019-02-12T00:13:02.418Z,102153.66
2019-02-12T00:15:31.871Z,102157.92
2019-02-12T00:18:01.165Z,102162.90
2019-02-12T00:20:31.054Z,102154.11
2019-02-12T00:23:00.769Z,102154.58
2019-02-12T00:25:29.996Z,102161.38
2019-02-12T00:27:59.551Z,102167.59
2019-02-12T00:30:28.906Z,102170.20
2019-02-12T00:32:58.388Z,102174.52
2019-02-12T00:35:27.633Z,102174.90
2019-02-12T00:37:57.206Z,102178.81
2019-02-12T00:40:26.782Z,102178.75
2019-02-12T00:42:56.004Z,102174.55
2019-02-12T00:45:25.565Z,102179.77
2019-02-12T00:47:55.157Z,102175.16
2019-02-12T00:50:24.323Z,102177.23
2019-02-12T00:52:53.499Z,102176.52
2019-02-12T00:55:23.002Z,102166.50
2019-02-12T00:57:52.544Z,102171.42
2019-02-12T01:00:22.003Z,102173.48
2019-02-12T01:02:51.543Z,102178.80
2019-02-12T01:05:20.762Z,102172.19
2019-02-12T01:07:49.927Z,102182.73
2019-02-12T01:10:19.119Z,102185.30
2019-02-12T01:12:48.638Z,102183.36
2019-02-12T01:15:18.176Z,102189.23
2019-02-12T01:17:48.127Z,102185.96
2019-02-12T01:20:17.649Z,102191.09
2019-02-12T01:22:47.315Z,102188.39
2019-02-12T01:25:16.477Z,102180.45
2019-02-12T01:27:45.647Z,102186.19
2019-02-12T01:30:17.909Z,102190.46
2019-02-12T01:32:47.100Z,102189.75
2019-02-12T01:35:16.295Z,102193.55
2019-02-12T01:37:45.846Z,102203.05
2019-02-12T01:40:15.573Z,102190.98
2019-02-12T01:42:44.812Z,102198.16
2019-02-12T01:45:18.401Z,102191.29
2019-02-12T01:47:47.563Z,102189.05
2019-02-12T01:50:16.725Z,102189.14
2019-02-12T01:52:45.922Z,102191.75
2019-02-12T01:55:15.472Z,102198.11
2019-02-12T01:57:44.798Z,102198.84
2019-02-12T02:00:14.956Z,102200.31
2019-02-12T02:02:44.365Z,102208.61
2019-02-12T02:05:13.570Z,102210.08
2019-02-12T02:07:43.128Z,102211.22
2019-02-12T02:10:14.885Z,102211.29
2019-02-12T02:12:44.065Z,102208.22
2019-02-12T02:15:13.760Z,102219.84
2019-02-12T02:17:43.267Z,102222.33
2019-02-12T02:20:13.378Z,102210.22
2019-02-12T02:22:42.926Z,102214.88
2019-02-12T02:25:12.422Z,102217.23
2019-02-12T02:27:41.978Z,102219.45
2019-02-12T02:30:12.281Z,102220.95
2019-02-12T02:32:41.831Z,102213.53
2019-02-12T02:35:11.649Z,102215.88
2019-02-12T02:37:41.228Z,102218.38
2019-02-12T02:40:10.818Z,102211.31
2019-02-12T02:42:40.063Z,102216.77
2019-02-12T02:45:10.255Z,102217.90
2019-02-12T02:47:39.818Z,102214.09
2019-02-12T02:50:09.498Z,102220.11
2019-02-12T02:52:38.669Z,102222.55
2019-02-12T02:55:08.931Z,102226.44
2019-02-12T02:57:38.732Z,102225.38
2019-02-12T03:00:09.695Z,102230.41
2019-02-12T03:02:38.892Z,102231.58
2019-02-12T03:05:10.099Z,102228.31
2019-02-12T03:07:39.537Z,102238.81
2019-02-12T03:10:09.251Z,102239.75
2019-02-12T03:12:38.848Z,102242.38
2019-02-12T03:15:09.580Z,102242.83
2019-02-12T03:17:38.787Z,102237.78
2019-02-12T03:20:10.119Z,102242.12
2019-02-12T03:22:39.320Z,102246.29
2019-02-12T03:25:09.359Z,102247.47
2019-02-12T03:27:38.616Z,102246.77
2019-02-12T03:30:09.772Z,102245.28
2019-02-12T03:32:39.351Z,102246.86
2019-02-12T03:35:09.830Z,102247.58
2019-02-12T03:37:39.364Z,102249.23
2019-02-12T03:40:10.243Z,102252.78
2019-02-12T03:42:39.888Z,102255.11
2019-02-12T03:45:10.082Z,102251.73
2019-02-12T03:47:39.263Z,102253.16
2019-02-12T03:50:09.764Z,102252.94
2019-02-12T03:52:38.955Z,102254.57
2019-02-12T03:55:09.854Z,102260.03
2019-02-12T03:57:39.263Z,102260.03
2019-02-12T04:00:11.081Z,102257.98
2019-02-12T04:02:59.139Z,102259.63
2019-02-12T04:05:28.741Z,102262.24
2019-02-12T04:08:01.368Z,102254.84
2019-02-12T04:10:31.187Z,102249.85
2019-02-12T04:13:02.798Z,102250.63
2019-02-12T04:15:32.136Z,102252.95
2019-02-12T04:18:05.641Z,102253.19
2019-02-12T04:20:35.196Z,102247.45
2019-02-12T04:23:04.337Z,102252.02
2019-02-12T04:25:33.524Z,102255.74
2019-02-12T04:28:03.356Z,102251.89
2019-02-12T04:30:32.582Z,102248.47
2019-02-12T04:33:04.226Z,102250.31
2019-02-12T04:35:33.373Z,102247.13
2019-02-12T04:38:03.027Z,102253.80
2019-02-12T04:40:32.542Z,102251.48
2019-02-12T04:43:02.228Z,102253.86
2019-02-12T04:45:31.425Z,102256.46
2019-02-12T04:48:01.120Z,102252.73
2019-02-12T04:50:30.663Z,102248.75
2019-02-12T04:53:00.155Z,102254.30
2019-02-12T04:55:29.567Z,102255.16
2019-02-12T04:57:59.067Z,102249.15
2019-02-12T05:00:28.211Z,102256.10
2019-02-12T05:02:57.432Z,102250.05
2019-02-12T05:05:26.629Z,102250.41
2019-02-12T05:07:56.070Z,102249.47
2019-02-12T05:10:26.474Z,102253.77
2019-02-12T05:12:55.693Z,102255.38
2019-02-12T05:15:25.700Z,102251.79
2019-02-12T05:17:55.255Z,102252.59
2019-02-12T05:20:25.242Z,102253.27
2019-02-12T05:22:55.432Z,102256.49
2019-02-12T05:25:24.779Z,102249.23
2019-02-12T05:27:53.938Z,102246.09
2019-02-12T05:30:23.135Z,102252.00
2019-02-12T05:32:52.355Z,102252.91
2019-02-12T05:35:21.855Z,102256.58
2019-02-12T05:37:51.394Z,102266.71
2019-02-12T05:40:21.017Z,102262.64
2019-02-12T05:42:50.303Z,102263.48
2019-02-12T05:45:19.721Z,102264.03
2019-02-12T05:47:48.982Z,102270.98
2019-02-12T05:50:18.695Z,102265.86
2019-02-12T05:52:54.573Z,102274.34
2019-02-12T05:55:19.452Z,102269.45
2019-02-12T05:57:49.473Z,102276.53
2019-02-12T06:00:19.477Z,102264.83
2019-02-12T06:02:49.407Z,102259.73
2019-02-12T06:05:27.041Z,102260.89
2019-02-12T06:07:56.214Z,102268.16
2019-02-12T06:10:25.415Z,102265.20
2019-02-12T06:12:54.579Z,102273.89
2019-02-12T06:15:24.530Z,102280.66
2019-02-12T06:17:54.047Z,102276.44
2019-02-12T06:20:23.248Z,102282.13
2019-02-12T06:22:52.421Z,102285.77
2019-02-12T06:25:22.006Z,102284.13
2019-02-12T06:27:51.239Z,102283.95
2019-02-12T06:30:20.444Z,102285.44
2019-02-12T06:32:49.629Z,102281.41
2019-02-12T06:35:19.339Z,102284.73
2019-02-12T06:37:48.490Z,102290.61
2019-02-12T06:40:18.353Z,102299.08
2019-02-12T06:42:47.545Z,102297.53
2019-02-12T06:45:16.727Z,102310.27
2019-02-12T06:47:46.338Z,102316.05
2019-02-12T06:50:16.202Z,102309.91
2019-02-12T06:52:46.061Z,102310.42
2019-02-12T06:55:17.104Z,102320.34
2019-02-12T06:57:46.635Z,102324.25
2019-02-12T07:00:15.881Z,102326.77
2019-02-12T07:03:20.025Z,102334.78
2019-02-12T07:05:56.077Z,102333.66
2019-02-12T07:08:36.771Z,102335.08
2019-02-12T07:11:56.283Z,102331.26
2019-02-12T07:14:37.623Z,102350.06
2019-02-12T07:17:41.425Z,102346.17
2019-02-12T07:20:33.814Z,102354.49
2019-02-12T07:23:36.305Z,102353.09
2019-02-12T07:26:51.017Z,102350.59
2019-02-12T07:30:10.937Z,102358.41
2019-02-12T07:33:22.758Z,102360.16
2019-02-12T07:36:35.512Z,102367.51
2019-02-12T07:39:35.288Z,102379.44
2019-02-12T07:42:29.170Z,102379.36
2019-02-12T07:45:33.996Z,102385.69
2019-02-12T07:48:33.258Z,102386.25
2019-02-12T07:51:35.286Z,102385.44
2019-02-12T07:54:31.063Z,102383.11
2019-02-12T07:57:43.583Z,102385.43
2019-02-12T08:01:01.622Z,102389.84
2019-02-12T08:04:12.388Z,102391.87
2019-02-12T08:07:07.610Z,102393.83
2019-02-12T08:10:11.767Z,102389.83
2019-02-12T08:13:17.872Z,102394.84
2019-02-12T08:16:02.668Z,102403.16
2019-02-12T08:19:19.167Z,102416.37
2019-02-12T08:22:44.891Z,102413.50
2019-02-12T08:25:28.675Z,102412.20
2019-02-12T08:28:37.373Z,102417.22
2019-02-12T08:31:43.751Z,102422.14
2019-02-12T08:34:50.106Z,102414.28
2019-02-12T08:37:42.793Z,102409.17
2019-02-12T08:40:44.110Z,102405.75
2019-02-12T08:43:42.358Z,102409.37
2019-02-12T08:46:43.019Z,102410.37
2019-02-12T08:49:52.467Z,102408.50
2019-02-12T08:53:05.924Z,102411.84
2019-02-12T08:55:57.017Z,102403.88
2019-02-12T08:58:53.428Z,102407.18
2019-02-12T09:02:16.378Z,102401.89
2019-02-12T09:05:10.479Z,102403.55
2019-02-12T09:07:53.694Z,102405.42
2019-02-12T09:11:12.826Z,102401.21
2019-02-12T09:13:59.492Z,102408.26
2019-02-12T09:17:14.929Z,102407.61
2019-02-12T09:20:11.193Z,102410.94
2019-02-12T09:23:18.419Z,102424.28
2019-02-12T09:26:22.244Z,102430.44
2019-02-12T09:29:35.040Z,102428.05
2019-02-12T09:32:36.293Z,102434.02
2019-02-12T09:36:10.802Z,102429.04
2019-02-12T09:39:19.687Z,102437.08
2019-02-12T09:42:06.065Z,102436.16
2019-02-12T09:45:14.063Z,102443.95
2019-02-12T09:48:38.919Z,102446.70
2019-02-12T09:51:41.996Z,102450.23
2019-02-12T09:54:39.959Z,102451.77
2019-02-12T09:57:35.480Z,102449.14
2019-02-12T10:00:34.355Z,102452.05
2019-02-12T10:03:44.551Z,102451.02
2019-02-12T10:06:51.568Z,102459.25
2019-02-12T10:09:44.040Z,102462.32
2019-02-12T10:12:37.484Z,102456.72
2019-02-12T10:15:42.448Z,102457.81
2019-02-12T10:18:50.480Z,102461.27
2019-02-12T10:21:51.359Z,102464.02
2019-02-12T10:24:53.951Z,102464.96
2019-02-12T10:28:04.541Z,102469.63
2019-02-12T10:31:20.934Z,102464.63
2019-02-12T10:33:50.141Z,102466.41
2019-02-12T10:36:19.765Z,102463.28
2019-02-12T10:38:49.040Z,102458.28
2019-02-12T10:41:18.578Z,102462.82
2019-02-12T10:43:50.860Z,102462.82
2019-02-12T10:46:20.076Z,102463.91
2019-02-12T10:48:49.262Z,102459.00
2019-02-12T10:51:18.717Z,102458.75
2019-02-12T10:53:48.384Z,102460.53
2019-02-12T10:56:17.577Z,102465.45
2019-02-12T10:58:48.521Z,102469.37
2019-02-12T11:01:18.006Z,102462.58
2019-02-12T11:03:47.164Z,102471.78
2019-02-12T11:06:16.511Z,102472.36
2019-02-12T11:08:46.365Z,102469.03
2019-02-12T11:11:15.534Z,102462.57
2019-02-12T11:13:44.790Z,102465.93
2019-02-12T11:16:13.950Z,102472.11
2019-02-12T11:18:43.132Z,102457.19
2019-02-12T11:21:13.425Z,102461.75
2019-02-12T11:23:42.944Z,102447.17
2019-02-12T11:26:12.453Z,102450.30
2019-02-12T11:28:41.655Z,102443.53
2019-02-12T11:31:11.213Z,102445.58
2019-02-12T11:33:40.441Z,102445.27
2019-02-12T11:36:09.616Z,102439.98
2019-02-12T11:38:38.794Z,102426.39
2019-02-12T11:41:08.005Z,102426.29
2019-02-12T11:43:37.273Z,102429.56
2019-02-12T11:46:06.806Z,102424.16
2019-02-12T11:48:36.345Z,102420.42
2019-02-12T11:51:05.550Z,102428.80
2019-02-12T11:53:35.113Z,102430.80
2019-02-12T11:56:04.607Z,102426.45
2019-02-12T11:58:33.807Z,102429.34
2019-02-12T12:01:05.377Z,102427.72
2019-02-12T12:03:34.947Z,102415.08
2019-02-12T12:06:04.300Z,102414.17
2019-02-12T12:08:33.617Z,102406.28
2019-02-12T12:11:02.823Z,102405.87
2019-02-12T12:13:31.976Z,102399.94
2019-02-12T12:16:01.553Z,102405.97
2019-02-12T12:18:31.133Z,102409.04
2019-02-12T12:21:00.312Z,102402.16
2019-02-12T12:23:29.860Z,102400.50
2019-02-12T12:25:59.022Z,102415.36
2019-02-12T12:28:28.257Z,102419.92
2019-02-12T12:30:57.997Z,102414.92
2019-02-12T12:33:27.169Z,102408.52
2019-02-12T12:35:56.371Z,102414.48
2019-02-12T12:38:25.994Z,102410.47
2019-02-12T12:40:56.515Z,102406.20
2019-02-12T12:43:26.044Z,102403.86
2019-02-12T12:45:55.262Z,102407.87
2019-02-12T12:48:24.819Z,102403.33
2019-02-12T12:50:54.434Z,102408.61
2019-02-12T12:53:23.545Z,102403.59
2019-02-12T12:55:52.752Z,102411.14
2019-02-12T12:58:21.934Z,102418.62
2019-02-12T13:00:51.590Z,102415.88
2019-02-12T13:03:21.159Z,102407.43
2019-02-12T13:05:50.771Z,102408.17
2019-02-12T13:08:20.281Z,102404.70
2019-02-12T13:10:49.545Z,102406.08
2019-02-12T13:13:19.090Z,102396.11
2019-02-12T13:15:48.233Z,102410.27
2019-02-12T13:18:17.993Z,102412.52
2019-02-12T13:20:47.768Z,102407.62
2019-02-12T13:23:17.198Z,102409.66
2019-02-12T13:25:46.425Z,102409.22
2019-02-12T13:28:15.962Z,102399.26
2019-02-12T13:30:48.304Z,102404.93
2019-02-12T13:33:17.972Z,102396.89
2019-02-12T13:35:47.519Z,102391.70
2019-02-12T13:38:16.737Z,102395.43
2019-02-12T13:40:46.064Z,102393.25
2019-02-12T13:43:15.722Z,102396.13
2019-02-12T13:45:45.002Z,102395.44
2019-02-12T13:48:14.262Z,102397.02
2019-02-12T13:50:45.460Z,102391.92
2019-02-12T13:53:14.657Z,102382.94
2019-02-12T13:55:43.814Z,102393.05
2019-02-12T13:58:12.972Z,102391.95
2019-02-12T14:00:43.093Z,102391.80
2019-02-12T14:03:12.289Z,102393.87
2019-02-12T14:05:42.161Z,102388.45
2019-02-12T14:08:11.784Z,102390.80
2019-02-12T14:10:40.999Z,102400.14
2019-02-12T14:13:10.610Z,102406.66
2019-02-12T14:15:40.243Z,102402.09
2019-02-12T14:18:10.411Z,102410.88
2019-02-12T14:20:39.576Z,102405.20
2019-02-12T14:23:08.848Z,102396.38
2019-02-12T14:25:38.013Z,102402.52
2019-02-12T14:28:07.328Z,102404.27
2019-02-12T14:30:36.512Z,102399.22
2019-02-12T14:33:06.107Z,102393.50
2019-02-12T14:35:35.371Z,102389.09
2019-02-12T14:38:04.977Z,102386.28
2019-02-12T14:40:34.597Z,102384.70
2019-02-12T14:43:04.166Z,102390.88
2019-02-12T14:45:33.339Z,102392.30
2019-02-12T14:48:03.026Z,102395.36
2019-02-12T14:50:32.191Z,102397.29
2019-02-12T14:53:02.028Z,102397.39
2019-02-12T14:55:33.891Z,102396.58
2019-02-12T14:58:02.840Z,102393.17
2019-02-12T15:00:34.057Z,102395.34
2019-02-12T15:03:03.393Z,102392.86
2019-02-12T15:05:33.031Z,102396.45
2019-02-12T15:08:02.604Z,102394.70
2019-02-12T15:10:31.774Z,102389.86
2019-02-12T15:13:01.311Z,102395.17
2019-02-12T15:15:30.463Z,102390.24
2019-02-12T15:18:00.052Z,102383.09
2019-02-12T15:20:29.520Z,102382.64
2019-02-12T15:22:59.397Z,102388.91
2019-02-12T15:25:29.017Z,102392.70
2019-02-12T15:27:58.580Z,102401.14
2019-02-12T15:30:27.820Z,102401.45
2019-02-12T15:32:59.583Z,102401.70
2019-02-12T15:35:28.754Z,102399.73
2019-02-12T15:37:58.319Z,102406.91
2019-02-12T15:40:27.804Z,102401.08
2019-02-12T15:42:57.349Z,102405.87
2019-02-12T15:45:26.558Z,102403.50
2019-02-12T15:47:56.038Z,102409.28
2019-02-12T15:50:25.244Z,102405.80
2019-02-12T15:52:54.748Z,102406.27
2019-02-12T15:55:23.981Z,102410.84
2019-02-12T15:57:53.208Z,102417.42
2019-02-12T16:00:22.359Z,102418.73
2019-02-12T16:02:54.038Z,102427.97
2019-02-12T16:05:23.937Z,102430.34
2019-02-12T16:07:53.528Z,102433.81
2019-02-12T16:10:23.029Z,102430.34
2019-02-12T16:12:52.626Z,102430.09
2019-02-12T16:15:24.417Z,102420.30
2019-02-12T16:17:53.263Z,102424.97
2019-02-12T16:20:22.443Z,102427.22
2019-02-12T16:22:51.662Z,102431.16
2019-02-12T16:25:21.226Z,102428.74
2019-02-12T16:27:50.726Z,102424.92
2019-02-12T16:30:19.925Z,102429.50
2019-02-12T16:32:49.091Z,102427.13
2019-02-12T16:35:18.731Z,102425.08
2019-02-12T16:37:48.295Z,102424.13
2019-02-12T16:40:17.792Z,102423.78
2019-02-12T16:42:46.951Z,102418.29
2019-02-12T16:45:19.257Z,102424.83
2019-02-12T16:47:48.820Z,102417.09
2019-02-12T16:50:18.339Z,102421.41
2019-02-12T16:52:47.509Z,102423.91
2019-02-12T16:55:18.549Z,102424.03
2019-02-12T16:57:47.751Z,102424.00
2019-02-12T17:00:17.390Z,102428.05
2019-02-12T17:02:46.934Z,102427.05
2019-02-12T17:05:18.086Z,102427.05
2019-02-12T17:07:48.589Z,102440.53
2019-02-12T17:10:18.065Z,102448.38
2019-02-12T17:12:47.257Z,102446.92
2019-02-12T17:15:17.218Z,102447.39
2019-02-12T17:17:46.700Z,102447.02
2019-02-12T17:20:17.287Z,102441.19
2019-02-12T17:22:46.498Z,102454.53
2019-02-12T17:25:15.735Z,102453.20
2019-02-12T17:27:44.997Z,102453.80
2019-02-12T17:30:14.657Z,102452.05
2019-02-12T17:32:44.236Z,102452.73
2019-02-12T17:35:13.591Z,102455.50
2019-02-12T17:37:42.767Z,102458.94
2019-02-12T17:40:12.797Z,102452.00
2019-02-12T17:42:42.067Z,102452.84
2019-02-12T17:45:13.080Z,102441.77
2019-02-12T17:47:42.232Z,102444.39
2019-02-12T17:50:12.337Z,102445.24
2019-02-12T17:52:41.632Z,102451.77
2019-02-12T17:55:11.645Z,102445.33
2019-02-12T17:57:41.260Z,102440.44
2019-02-12T18:00:14.964Z,102449.95
2019-02-12T18:02:44.738Z,102442.64
2019-02-12T18:05:14.156Z,102451.36
2019-02-12T18:07:44.069Z,102446.05
2019-02-12T18:10:13.270Z,102446.44
2019-02-12T18:12:45.970Z,102449.75
2019-02-12T18:15:15.153Z,102454.45
2019-02-12T18:17:44.948Z,102454.17
2019-02-12T18:20:14.525Z,102458.55
2019-02-12T18:22:44.059Z,102458.62
2019-02-12T18:25:13.683Z,102450.60
2019-02-12T18:27:42.984Z,102458.42
2019-02-12T18:30:13.857Z,102464.23
2019-02-12T18:32:43.091Z,102461.20
2019-02-12T18:35:12.265Z,102458.17
2019-02-12T18:37:41.926Z,102451.47
2019-02-12T18:40:12.334Z,102445.09
2019-02-12T18:42:41.527Z,102449.80
2019-02-12T18:45:13.058Z,102450.38
2019-02-12T18:47:42.547Z,102460.28
2019-02-12T18:50:12.720Z,102457.62
2019-02-12T18:52:41.967Z,102459.88
2019-02-12T18:55:12.354Z,102457.73
2019-02-12T18:57:41.737Z,102454.23
2019-02-12T19:00:14.082Z,102455.16
2019-02-12T19:02:43.859Z,102449.08
2019-02-12T19:05:13.152Z,102453.28
2019-02-12T19:07:42.988Z,102447.37
2019-02-12T19:10:13.266Z,102446.85
2019-02-12T19:12:42.477Z,102442.46
2019-02-12T19:15:13.734Z,102439.00
2019-02-12T19:17:44.150Z,102438.77
2019-02-12T19:20:13.673Z,102442.08
2019-02-12T19:22:43.695Z,102453.56
2019-02-12T19:25:13.334Z,102452.84
2019-02-12T19:27:42.519Z,102452.59
2019-02-12T19:30:13.789Z,102445.88
2019-02-12T19:32:43.504Z,102450.52
2019-02-12T19:35:13.381Z,102450.27
2019-02-12T19:37:43.871Z,102448.80
2019-02-12T19:40:13.107Z,102451.59
2019-02-12T19:42:42.386Z,102449.66
2019-02-12T19:45:12.142Z,102446.13
2019-02-12T19:47:42.035Z,102451.02
2019-02-12T19:50:11.587Z,102449.08
2019-02-12T19:52:41.535Z,102452.82
2019-02-12T19:55:11.500Z,102453.91
2019-02-12T19:57:40.940Z,102444.06
2019-02-12T20:00:14.331Z,102444.59
2019-02-12T20:02:44.069Z,102442.08
2019-02-12T20:05:13.423Z,102434.95
2019-02-12T20:07:43.102Z,102437.23
2019-02-12T20:10:13.259Z,102436.91
2019-02-12T20:12:42.840Z,102447.89
2019-02-12T20:15:13.077Z,102446.01
2019-02-12T20:17:43.273Z,102450.45
2019-02-12T20:20:13.082Z,102448.84
2019-02-12T20:22:42.418Z,102451.11
2019-02-12T20:25:12.215Z,102447.23
2019-02-12T20:27:41.451Z,102446.16
2019-02-12T20:30:12.380Z,102446.54
2019-02-12T20:32:41.956Z,102450.78
2019-02-12T20:35:12.571Z,102458.13
2019-02-12T20:37:41.813Z,102464.30
2019-02-12T20:40:12.007Z,102465.00
2019-02-12T20:42:41.621Z,102466.92
2019-02-12T20:45:13.101Z,102477.41
2019-02-12T20:47:42.279Z,102468.28
2019-02-12T20:50:13.585Z,102481.44
2019-02-12T20:52:45.891Z,102478.77
2019-02-12T20:55:15.396Z,102476.48
2019-02-12T20:57:45.209Z,102476.67
2019-02-12T21:00:16.368Z,102469.67
2019-02-12T21:02:45.541Z,102467.44
2019-02-12T21:05:15.236Z,102456.63
2019-02-12T21:07:44.446Z,102460.19
2019-02-12T21:10:15.434Z,102466.89
2019-02-12T21:12:45.013Z,102464.63
2019-02-12T21:15:16.498Z,102464.22
2019-02-12T21:17:45.726Z,102461.84
2019-02-12T21:20:14.947Z,102471.11
2019-02-12T21:22:44.419Z,102470.70
2019-02-12T21:25:13.616Z,102485.55
2019-02-12T21:27:42.809Z,102489.66
2019-02-12T21:30:14.861Z,102487.94
2019-02-12T21:32:44.360Z,102490.83
2019-02-12T21:35:13.618Z,102490.30
2019-02-12T21:37:43.074Z,102487.73
2019-02-12T21:40:15.005Z,102497.42
2019-02-12T21:42:44.185Z,102490.45
2019-02-12T21:45:13.406Z,102497.30
2019-02-12T21:47:42.556Z,102499.66
2019-02-12T21:50:12.242Z,102504.68
2019-02-12T21:52:41.818Z,102498.20
2019-02-12T21:55:12.408Z,102508.45
2019-02-12T21:57:41.732Z,102506.41
2019-02-12T22:00:13.364Z,102510.15
2019-02-12T22:02:43.970Z,102506.14
2019-02-12T22:05:13.806Z,102498.41
2019-02-12T22:07:43.364Z,102501.80
2019-02-12T22:10:14.863Z,102503.64
2019-02-12T22:12:44.321Z,102512.69
2019-02-12T22:15:13.678Z,102513.59
2019-02-12T22:17:43.349Z,102509.39
2019-02-12T22:20:14.535Z,102517.70
2019-02-12T22:22:43.699Z,102508.58
2019-02-12T22:25:13.616Z,102506.67
2019-02-12T22:27:43.098Z,102498.79
2019-02-12T22:30:15.016Z,102507.42
2019-02-12T22:32:44.465Z,102497.87
2019-02-12T22:35:14.711Z,102507.53
2019-02-12T22:37:44.338Z,102501.02
2019-02-12T22:40:13.980Z,102501.71
2019-02-12T22:42:43.226Z,102511.52
2019-02-12T22:45:15.172Z,102516.42
2019-02-12T22:47:44.356Z,102516.42
2019-02-12T22:50:13.632Z,102513.86
2019-02-12T22:52:43.184Z,102518.82
2019-02-12T22:55:13.063Z,102517.73
2019-02-12T22:57:48.948Z,102520.98
2019-02-12T23:00:24.743Z,102515.63
2019-02-12T23:02:53.978Z,102522.75
2019-02-12T23:05:23.502Z,102520.87
2019-02-12T23:07:53.024Z,102521.84
2019-02-12T23:10:22.602Z,102531.06
2019-02-12T23:12:51.808Z,102534.70
2019-02-12T23:15:21.358Z,102528.42
2019-02-12T23:17:50.881Z,102524.96
2019-02-12T23:20:20.038Z,102525.20
2019-02-12T23:22:49.621Z,102524.58
2019-02-12T23:25:19.574Z,102529.41
2019-02-12T23:27:57.039Z,102535.68
2019-02-12T23:30:19.622Z,102530.03
2019-02-12T23:32:49.216Z,102531.02
2019-02-12T23:35:19.041Z,102530.44
2019-02-12T23:37:48.935Z,102533.91
2019-02-12T23:40:18.136Z,102537.61
2019-02-12T23:42:47.633Z,102535.45
2019-02-12T23:45:17.144Z,102538.59
2019-02-12T23:47:46.601Z,102535.23
2019-02-12T23:50:15.861Z,102532.50
2019-02-12T23:52:45.769Z,102521.50
2019-02-12T23:55:14.936Z,102522.01
2019-02-12T23:57:44.473Z,102515.57
